sensor_id;sensor_type;location;lat;lon;timestamp;P1;durP1;ratioP1;P2;durP2;ratioP2
78840;SDS011;68379;47.190;27.558;2024-01-30T00:01:38;26.00;;;10.60;;
78840;SDS011;68379;47.190;27.558;2024-01-30T00:04:11;27.60;;;11.40;;
78840;SDS011;68379;47.190;27.558;2024-01-30T00:06:44;25.60;;;12.10;;
78840;SDS011;68379;47.190;27.558;2024-01-30T00:09:19;24.70;;;10.90;;
78840;SDS011;68379;47.190;27.558;2024-01-30T00:11:51;24.90;;;10.20;;
78840;SDS011;68379;47.190;27.558;2024-01-30T00:14:25;23.90;;;10.50;;
78840;SDS011;68379;47.190;27.558;2024-01-30T00:16:58;24.70;;;10.50;;
78840;SDS011;68379;47.190;27.558;2024-01-30T00:19:33;21.00;;;9.60;;
78840;SDS011;68379;47.190;27.558;2024-01-30T00:22:09;23.90;;;10.60;;
78840;SDS011;68379;47.190;27.558;2024-01-30T00:24:42;25.00;;;10.40;;
78840;SDS011;68379;47.190;27.558;2024-01-30T00:27:14;27.40;;;10.70;;
78840;SDS011;68379;47.190;27.558;2024-01-30T00:29:46;21.90;;;10.70;;
78840;SDS011;68379;47.190;27.558;2024-01-30T00:32:19;24.20;;;10.70;;
78840;SDS011;68379;47.190;27.558;2024-01-30T00:34:57;20.70;;;10.10;;
78840;SDS011;68379;47.190;27.558;2024-01-30T00:37:33;25.10;;;11.10;;
78840;SDS011;68379;47.190;27.558;2024-01-30T00:40:06;24.80;;;10.70;;
78840;SDS011;68379;47.190;27.558;2024-01-30T00:42:44;21.50;;;9.20;;
78840;SDS011;68379;47.190;27.558;2024-01-30T00:45:18;23.90;;;9.60;;
78840;SDS011;68379;47.190;27.558;2024-01-30T00:47:54;24.70;;;11.00;;
78840;SDS011;68379;47.190;27.558;2024-01-30T00:50:26;20.70;;;9.70;;
78840;SDS011;68379;47.190;27.558;2024-01-30T00:55:30;19.30;;;8.10;;
78840;SDS011;68379;47.190;27.558;2024-01-30T00:58:02;20.70;;;8.80;;
78840;SDS011;68379;47.190;27.558;2024-01-30T01:00:34;19.90;;;8.20;;
78840;SDS011;68379;47.190;27.558;2024-01-30T01:03:06;20.80;;;8.60;;
78840;SDS011;68379;47.190;27.558;2024-01-30T01:05:38;19.90;;;8.50;;
78840;SDS011;68379;47.190;27.558;2024-01-30T01:08:10;21.60;;;9.00;;
78840;SDS011;68379;47.190;27.558;2024-01-30T01:10:43;19.50;;;9.10;;
78840;SDS011;68379;47.190;27.558;2024-01-30T01:13:15;20.40;;;8.50;;
78840;SDS011;68379;47.190;27.558;2024-01-30T01:15:47;20.60;;;8.20;;
78840;SDS011;68379;47.190;27.558;2024-01-30T01:18:20;23.10;;;8.30;;
78840;SDS011;68379;47.190;27.558;2024-01-30T01:20:53;19.40;;;8.60;;
78840;SDS011;68379;47.190;27.558;2024-01-30T01:23:25;15.10;;;7.20;;
78840;SDS011;68379;47.190;27.558;2024-01-30T01:25:58;22.10;;;9.00;;
78840;SDS011;68379;47.190;27.558;2024-01-30T01:28:30;18.50;;;7.60;;
78840;SDS011;68379;47.190;27.558;2024-01-30T01:31:04;17.00;;;8.40;;
78840;SDS011;68379;47.190;27.558;2024-01-30T01:33:39;19.30;;;9.10;;
78840;SDS011;68379;47.190;27.558;2024-01-30T01:36:12;20.50;;;8.60;;
78840;SDS011;68379;47.190;27.558;2024-01-30T01:38:50;20.90;;;8.90;;
78840;SDS011;68379;47.190;27.558;2024-01-30T01:41:21;19.60;;;8.30;;
78840;SDS011;68379;47.190;27.558;2024-01-30T01:43:54;16.10;;;7.70;;
78840;SDS011;68379;47.190;27.558;2024-01-30T01:46:27;21.30;;;8.40;;
78840;SDS011;68379;47.190;27.558;2024-01-30T01:49:06;22.90;;;8.30;;
78840;SDS011;68379;47.190;27.558;2024-01-30T01:51:39;20.10;;;7.50;;
78840;SDS011;68379;47.190;27.558;2024-01-30T01:54:12;20.60;;;8.10;;
78840;SDS011;68379;47.190;27.558;2024-01-30T01:56:46;19.20;;;8.50;;
78840;SDS011;68379;47.190;27.558;2024-01-30T01:59:18;17.70;;;7.80;;
78840;SDS011;68379;47.190;27.558;2024-01-30T02:01:51;20.00;;;7.90;;
78840;SDS011;68379;47.190;27.558;2024-01-30T02:04:25;18.10;;;7.80;;
78840;SDS011;68379;47.190;27.558;2024-01-30T02:06:58;17.60;;;8.60;;
78840;SDS011;68379;47.190;27.558;2024-01-30T02:09:30;19.50;;;7.60;;
78840;SDS011;68379;47.190;27.558;2024-01-30T02:12:02;21.40;;;8.90;;
78840;SDS011;68379;47.190;27.558;2024-01-30T02:14:43;17.20;;;6.70;;
78840;SDS011;68379;47.190;27.558;2024-01-30T02:17:18;18.00;;;7.70;;
78840;SDS011;68379;47.190;27.558;2024-01-30T02:19:52;20.40;;;8.40;;
78840;SDS011;68379;47.190;27.558;2024-01-30T02:22:24;19.80;;;8.00;;
78840;SDS011;68379;47.190;27.558;2024-01-30T02:24:57;22.30;;;8.80;;
78840;SDS011;68379;47.190;27.558;2024-01-30T02:27:31;16.30;;;7.10;;
78840;SDS011;68379;47.190;27.558;2024-01-30T02:30:06;20.70;;;8.10;;
78840;SDS011;68379;47.190;27.558;2024-01-30T02:32:41;16.40;;;7.00;;
78840;SDS011;68379;47.190;27.558;2024-01-30T02:35:15;18.10;;;7.80;;
78840;SDS011;68379;47.190;27.558;2024-01-30T02:37:48;17.80;;;7.70;;
78840;SDS011;68379;47.190;27.558;2024-01-30T02:40:19;18.80;;;7.00;;
78840;SDS011;68379;47.190;27.558;2024-01-30T02:42:51;18.60;;;7.50;;
78840;SDS011;68379;47.190;27.558;2024-01-30T02:45:23;17.40;;;7.40;;
78840;SDS011;68379;47.190;27.558;2024-01-30T02:47:56;17.10;;;8.00;;
78840;SDS011;68379;47.190;27.558;2024-01-30T02:50:30;16.10;;;7.50;;
78840;SDS011;68379;47.190;27.558;2024-01-30T02:53:05;14.70;;;7.60;;
78840;SDS011;68379;47.190;27.558;2024-01-30T02:55:38;17.40;;;6.60;;
78840;SDS011;68379;47.190;27.558;2024-01-30T02:58:11;13.70;;;5.90;;
78840;SDS011;68379;47.190;27.558;2024-01-30T03:00:44;15.90;;;6.60;;
78840;SDS011;68379;47.190;27.558;2024-01-30T03:03:17;15.50;;;7.30;;
78840;SDS011;68379;47.190;27.558;2024-01-30T03:05:51;16.80;;;7.40;;
78840;SDS011;68379;47.190;27.558;2024-01-30T03:08:26;19.20;;;7.30;;
78840;SDS011;68379;47.190;27.558;2024-01-30T03:10:57;13.80;;;6.70;;
78840;SDS011;68379;47.190;27.558;2024-01-30T03:13:33;15.70;;;6.40;;
78840;SDS011;68379;47.190;27.558;2024-01-30T03:16:06;15.70;;;6.60;;
78840;SDS011;68379;47.190;27.558;2024-01-30T03:18:38;16.00;;;6.20;;
78840;SDS011;68379;47.190;27.558;2024-01-30T03:21:10;12.60;;;5.70;;
78840;SDS011;68379;47.190;27.558;2024-01-30T03:23:42;12.70;;;5.20;;
78840;SDS011;68379;47.190;27.558;2024-01-30T03:26:17;13.60;;;6.40;;
78840;SDS011;68379;47.190;27.558;2024-01-30T03:28:50;16.70;;;7.30;;
78840;SDS011;68379;47.190;27.558;2024-01-30T03:31:24;19.50;;;7.50;;
78840;SDS011;68379;47.190;27.558;2024-01-30T03:33:57;14.50;;;6.50;;
78840;SDS011;68379;47.190;27.558;2024-01-30T03:36:30;12.40;;;6.00;;
78840;SDS011;68379;47.190;27.558;2024-01-30T03:39:03;10.70;;;5.60;;
78840;SDS011;68379;47.190;27.558;2024-01-30T03:41:36;11.30;;;5.80;;
78840;SDS011;68379;47.190;27.558;2024-01-30T03:44:12;11.30;;;4.80;;
78840;SDS011;68379;47.190;27.558;2024-01-30T03:46:47;12.10;;;5.50;;
78840;SDS011;68379;47.190;27.558;2024-01-30T03:49:19;12.40;;;4.70;;
78840;SDS011;68379;47.190;27.558;2024-01-30T03:51:53;12.80;;;5.20;;
78840;SDS011;68379;47.190;27.558;2024-01-30T03:54:25;14.80;;;5.80;;
78840;SDS011;68379;47.190;27.558;2024-01-30T03:56:57;12.50;;;6.30;;
78840;SDS011;68379;47.190;27.558;2024-01-30T03:59:29;15.50;;;5.50;;
78840;SDS011;68379;47.190;27.558;2024-01-30T04:02:00;12.50;;;6.10;;
78840;SDS011;68379;47.190;27.558;2024-01-30T04:04:32;14.10;;;5.70;;
78840;SDS011;68379;47.190;27.558;2024-01-30T04:07:05;12.60;;;5.40;;
78840;SDS011;68379;47.190;27.558;2024-01-30T04:09:36;13.20;;;5.40;;
78840;SDS011;68379;47.190;27.558;2024-01-30T04:12:10;11.70;;;5.90;;
78840;SDS011;68379;47.190;27.558;2024-01-30T04:14:42;13.90;;;6.00;;
78840;SDS011;68379;47.190;27.558;2024-01-30T04:17:14;9.10;;;4.70;;
78840;SDS011;68379;47.190;27.558;2024-01-30T04:19:46;15.30;;;5.60;;
78840;SDS011;68379;47.190;27.558;2024-01-30T04:22:19;15.00;;;5.80;;
78840;SDS011;68379;47.190;27.558;2024-01-30T04:24:51;12.30;;;4.80;;
78840;SDS011;68379;47.190;27.558;2024-01-30T04:27:22;11.90;;;4.70;;
78840;SDS011;68379;47.190;27.558;2024-01-30T04:29:58;10.30;;;4.80;;
78840;SDS011;68379;47.190;27.558;2024-01-30T04:32:30;8.90;;;4.20;;
78840;SDS011;68379;47.190;27.558;2024-01-30T04:35:02;8.00;;;4.40;;
78840;SDS011;68379;47.190;27.558;2024-01-30T04:37:35;9.70;;;4.70;;
78840;SDS011;68379;47.190;27.558;2024-01-30T04:40:08;11.10;;;4.90;;
78840;SDS011;68379;47.190;27.558;2024-01-30T04:42:40;11.40;;;4.80;;
78840;SDS011;68379;47.190;27.558;2024-01-30T04:45:12;10.80;;;4.50;;
78840;SDS011;68379;47.190;27.558;2024-01-30T04:47:44;11.90;;;4.30;;
78840;SDS011;68379;47.190;27.558;2024-01-30T04:50:18;9.60;;;4.10;;
78840;SDS011;68379;47.190;27.558;2024-01-30T04:52:52;10.40;;;4.20;;
78840;SDS011;68379;47.190;27.558;2024-01-30T04:55:23;7.50;;;3.90;;
78840;SDS011;68379;47.190;27.558;2024-01-30T04:57:56;11.30;;;5.00;;
78840;SDS011;68379;47.190;27.558;2024-01-30T05:00:28;10.00;;;5.20;;
78840;SDS011;68379;47.190;27.558;2024-01-30T05:03:04;11.00;;;4.50;;
78840;SDS011;68379;47.190;27.558;2024-01-30T05:05:38;14.20;;;5.70;;
78840;SDS011;68379;47.190;27.558;2024-01-30T05:08:10;12.70;;;4.90;;
78840;SDS011;68379;47.190;27.558;2024-01-30T05:10:44;13.00;;;5.50;;
78840;SDS011;68379;47.190;27.558;2024-01-30T05:13:16;10.00;;;6.00;;
78840;SDS011;68379;47.190;27.558;2024-01-30T05:15:50;13.20;;;5.50;;
78840;SDS011;68379;47.190;27.558;2024-01-30T05:18:23;11.70;;;5.30;;
78840;SDS011;68379;47.190;27.558;2024-01-30T05:20:57;11.90;;;5.70;;
78840;SDS011;68379;47.190;27.558;2024-01-30T05:23:30;12.20;;;5.50;;
78840;SDS011;68379;47.190;27.558;2024-01-30T05:26:03;11.00;;;5.30;;
78840;SDS011;68379;47.190;27.558;2024-01-30T05:28:35;10.90;;;5.70;;
78840;SDS011;68379;47.190;27.558;2024-01-30T05:31:07;11.00;;;5.30;;
78840;SDS011;68379;47.190;27.558;2024-01-30T05:33:39;11.50;;;5.20;;
78840;SDS011;68379;47.190;27.558;2024-01-30T05:36:13;9.30;;;5.10;;
78840;SDS011;68379;47.190;27.558;2024-01-30T05:38:46;9.40;;;4.30;;
78840;SDS011;68379;47.190;27.558;2024-01-30T05:41:19;12.70;;;4.40;;
78840;SDS011;68379;47.190;27.558;2024-01-30T05:43:52;12.40;;;4.40;;
78840;SDS011;68379;47.190;27.558;2024-01-30T05:46:25;9.30;;;4.40;;
78840;SDS011;68379;47.190;27.558;2024-01-30T05:48:56;9.40;;;4.30;;
78840;SDS011;68379;47.190;27.558;2024-01-30T05:51:28;10.10;;;4.10;;
78840;SDS011;68379;47.190;27.558;2024-01-30T05:54:00;11.20;;;5.40;;
78840;SDS011;68379;47.190;27.558;2024-01-30T05:56:33;10.20;;;4.50;;
78840;SDS011;68379;47.190;27.558;2024-01-30T05:59:06;11.40;;;4.70;;
78840;SDS011;68379;47.190;27.558;2024-01-30T06:01:44;11.30;;;5.00;;
78840;SDS011;68379;47.190;27.558;2024-01-30T06:04:17;11.00;;;5.40;;
78840;SDS011;68379;47.190;27.558;2024-01-30T06:06:49;13.30;;;5.10;;
78840;SDS011;68379;47.190;27.558;2024-01-30T06:09:22;13.20;;;5.90;;
78840;SDS011;68379;47.190;27.558;2024-01-30T06:11:54;15.60;;;6.00;;
78840;SDS011;68379;47.190;27.558;2024-01-30T06:14:26;11.10;;;6.00;;
78840;SDS011;68379;47.190;27.558;2024-01-30T06:16:57;16.10;;;6.60;;
78840;SDS011;68379;47.190;27.558;2024-01-30T06:19:29;19.20;;;7.70;;
78840;SDS011;68379;47.190;27.558;2024-01-30T06:22:01;16.00;;;6.60;;
78840;SDS011;68379;47.190;27.558;2024-01-30T06:24:33;12.80;;;6.60;;
78840;SDS011;68379;47.190;27.558;2024-01-30T06:27:08;18.60;;;7.90;;
78840;SDS011;68379;47.190;27.558;2024-01-30T06:29:40;12.10;;;6.20;;
78840;SDS011;68379;47.190;27.558;2024-01-30T06:32:13;13.10;;;5.40;;
78840;SDS011;68379;47.190;27.558;2024-01-30T06:34:47;14.90;;;6.00;;
78840;SDS011;68379;47.190;27.558;2024-01-30T06:37:18;11.20;;;6.50;;
78840;SDS011;68379;47.190;27.558;2024-01-30T06:39:53;18.80;;;8.00;;
78840;SDS011;68379;47.190;27.558;2024-01-30T06:42:25;16.40;;;8.20;;
78840;SDS011;68379;47.190;27.558;2024-01-30T06:44:56;17.50;;;7.80;;
78840;SDS011;68379;47.190;27.558;2024-01-30T06:47:28;19.30;;;8.30;;
78840;SDS011;68379;47.190;27.558;2024-01-30T06:50:00;19.60;;;8.80;;
78840;SDS011;68379;47.190;27.558;2024-01-30T06:52:37;19.00;;;9.10;;
78840;SDS011;68379;47.190;27.558;2024-01-30T06:55:28;21.40;;;9.90;;
78840;SDS011;68379;47.190;27.558;2024-01-30T06:58:00;20.50;;;10.70;;
78840;SDS011;68379;47.190;27.558;2024-01-30T07:00:32;18.60;;;9.70;;
78840;SDS011;68379;47.190;27.558;2024-01-30T07:03:04;15.10;;;7.00;;
78840;SDS011;68379;47.190;27.558;2024-01-30T07:05:36;12.80;;;6.20;;
78840;SDS011;68379;47.190;27.558;2024-01-30T07:08:09;14.30;;;6.60;;
78840;SDS011;68379;47.190;27.558;2024-01-30T07:11:00;13.00;;;6.30;;
78840;SDS011;68379;47.190;27.558;2024-01-30T07:13:32;12.30;;;5.70;;
78840;SDS011;68379;47.190;27.558;2024-01-30T07:16:05;12.10;;;5.90;;
78840;SDS011;68379;47.190;27.558;2024-01-30T07:18:37;13.60;;;6.30;;
78840;SDS011;68379;47.190;27.558;2024-01-30T07:21:09;12.70;;;6.30;;
78840;SDS011;68379;47.190;27.558;2024-01-30T07:23:42;12.40;;;5.70;;
78840;SDS011;68379;47.190;27.558;2024-01-30T07:26:14;10.10;;;5.50;;
78840;SDS011;68379;47.190;27.558;2024-01-30T07:28:46;10.70;;;5.00;;
78840;SDS011;68379;47.190;27.558;2024-01-30T07:31:20;11.10;;;6.10;;
78840;SDS011;68379;47.190;27.558;2024-01-30T07:33:57;13.20;;;5.80;;
78840;SDS011;68379;47.190;27.558;2024-01-30T07:36:30;15.40;;;6.80;;
78840;SDS011;68379;47.190;27.558;2024-01-30T07:39:06;15.60;;;7.20;;
78840;SDS011;68379;47.190;27.558;2024-01-30T07:41:39;17.50;;;8.50;;
78840;SDS011;68379;47.190;27.558;2024-01-30T07:44:11;17.30;;;8.60;;
78840;SDS011;68379;47.190;27.558;2024-01-30T07:46:44;15.10;;;8.10;;
78840;SDS011;68379;47.190;27.558;2024-01-30T07:49:21;20.40;;;9.90;;
78840;SDS011;68379;47.190;27.558;2024-01-30T07:51:54;19.60;;;9.90;;
78840;SDS011;68379;47.190;27.558;2024-01-30T07:54:26;23.00;;;10.20;;
78840;SDS011;68379;47.190;27.558;2024-01-30T07:57:01;23.50;;;10.10;;
78840;SDS011;68379;47.190;27.558;2024-01-30T07:59:34;24.30;;;11.40;;
78840;SDS011;68379;47.190;27.558;2024-01-30T08:02:05;18.10;;;10.10;;
78840;SDS011;68379;47.190;27.558;2024-01-30T08:04:40;25.90;;;11.40;;
78840;SDS011;68379;47.190;27.558;2024-01-30T08:07:16;22.80;;;11.30;;
78840;SDS011;68379;47.190;27.558;2024-01-30T08:09:49;25.40;;;12.10;;
78840;SDS011;68379;47.190;27.558;2024-01-30T08:12:21;21.00;;;11.80;;
78840;SDS011;68379;47.190;27.558;2024-01-30T08:14:52;21.40;;;11.10;;
78840;SDS011;68379;47.190;27.558;2024-01-30T08:17:24;24.30;;;12.70;;
78840;SDS011;68379;47.190;27.558;2024-01-30T08:19:58;22.60;;;11.90;;
78840;SDS011;68379;47.190;27.558;2024-01-30T08:22:32;24.10;;;12.20;;
78840;SDS011;68379;47.190;27.558;2024-01-30T08:25:05;23.20;;;12.00;;
78840;SDS011;68379;47.190;27.558;2024-01-30T08:27:38;23.60;;;13.10;;
78840;SDS011;68379;47.190;27.558;2024-01-30T08:30:11;26.20;;;13.20;;
78840;SDS011;68379;47.190;27.558;2024-01-30T08:32:45;24.50;;;14.10;;
78840;SDS011;68379;47.190;27.558;2024-01-30T08:35:31;26.60;;;13.10;;
78840;SDS011;68379;47.190;27.558;2024-01-30T08:38:11;25.60;;;11.90;;
78840;SDS011;68379;47.190;27.558;2024-01-30T08:40:45;26.70;;;13.40;;
78840;SDS011;68379;47.190;27.558;2024-01-30T08:43:21;26.10;;;13.20;;
78840;SDS011;68379;47.190;27.558;2024-01-30T08:45:53;26.30;;;13.30;;
78840;SDS011;68379;47.190;27.558;2024-01-30T08:48:25;25.00;;;13.70;;
78840;SDS011;68379;47.190;27.558;2024-01-30T08:51:13;25.60;;;13.00;;
78840;SDS011;68379;47.190;27.558;2024-01-30T08:53:47;26.30;;;13.80;;
78840;SDS011;68379;47.190;27.558;2024-01-30T08:56:23;27.80;;;14.20;;
78840;SDS011;68379;47.190;27.558;2024-01-30T08:58:54;26.10;;;13.80;;
78840;SDS011;68379;47.190;27.558;2024-01-30T09:01:27;26.70;;;13.80;;
78840;SDS011;68379;47.190;27.558;2024-01-30T09:04:00;26.80;;;13.90;;
78840;SDS011;68379;47.190;27.558;2024-01-30T09:06:35;24.90;;;13.60;;
78840;SDS011;68379;47.190;27.558;2024-01-30T09:09:09;25.30;;;14.20;;
78840;SDS011;68379;47.190;27.558;2024-01-30T09:11:42;23.70;;;14.10;;
78840;SDS011;68379;47.190;27.558;2024-01-30T09:14:15;31.70;;;16.20;;
78840;SDS011;68379;47.190;27.558;2024-01-30T09:16:47;25.40;;;13.30;;
78840;SDS011;68379;47.190;27.558;2024-01-30T09:19:20;22.40;;;11.80;;
78840;SDS011;68379;47.190;27.558;2024-01-30T09:24:31;22.50;;;11.30;;
78840;SDS011;68379;47.190;27.558;2024-01-30T09:27:04;22.30;;;10.30;;
78840;SDS011;68379;47.190;27.558;2024-01-30T09:29:36;16.60;;;7.40;;
78840;SDS011;68379;47.190;27.558;2024-01-30T09:32:08;13.80;;;7.80;;
78840;SDS011;68379;47.190;27.558;2024-01-30T09:34:41;16.00;;;7.70;;
78840;SDS011;68379;47.190;27.558;2024-01-30T09:37:12;15.10;;;7.60;;
78840;SDS011;68379;47.190;27.558;2024-01-30T09:39:46;14.30;;;7.30;;
78840;SDS011;68379;47.190;27.558;2024-01-30T09:42:20;15.20;;;7.90;;
78840;SDS011;68379;47.190;27.558;2024-01-30T09:45:04;12.40;;;6.60;;
78840;SDS011;68379;47.190;27.558;2024-01-30T09:47:38;15.70;;;8.10;;
78840;SDS011;68379;47.190;27.558;2024-01-30T09:50:12;14.60;;;7.30;;
78840;SDS011;68379;47.190;27.558;2024-01-30T09:55:17;12.60;;;6.50;;
78840;SDS011;68379;47.190;27.558;2024-01-30T09:57:49;11.90;;;6.90;;
78840;SDS011;68379;47.190;27.558;2024-01-30T10:00:21;11.80;;;6.10;;
78840;SDS011;68379;47.190;27.558;2024-01-30T10:05:26;11.70;;;6.60;;
78840;SDS011;68379;47.190;27.558;2024-01-30T10:08:05;12.50;;;7.00;;
78840;SDS011;68379;47.190;27.558;2024-01-30T10:10:37;11.20;;;5.90;;
78840;SDS011;68379;47.190;27.558;2024-01-30T10:13:09;9.80;;;6.00;;
78840;SDS011;68379;47.190;27.558;2024-01-30T10:15:41;11.60;;;5.20;;
78840;SDS011;68379;47.190;27.558;2024-01-30T10:18:14;10.80;;;5.90;;
78840;SDS011;68379;47.190;27.558;2024-01-30T10:20:46;11.00;;;6.00;;
78840;SDS011;68379;47.190;27.558;2024-01-30T10:23:19;13.50;;;6.20;;
78840;SDS011;68379;47.190;27.558;2024-01-30T10:25:54;9.90;;;5.40;;
78840;SDS011;68379;47.190;27.558;2024-01-30T10:28:28;9.50;;;5.90;;
78840;SDS011;68379;47.190;27.558;2024-01-30T10:31:00;9.80;;;4.80;;
78840;SDS011;68379;47.190;27.558;2024-01-30T10:33:33;8.70;;;4.60;;
78840;SDS011;68379;47.190;27.558;2024-01-30T10:36:06;8.60;;;4.50;;
78840;SDS011;68379;47.190;27.558;2024-01-30T10:38:42;11.50;;;5.00;;
78840;SDS011;68379;47.190;27.558;2024-01-30T10:41:15;10.50;;;5.90;;
78840;SDS011;68379;47.190;27.558;2024-01-30T10:43:57;8.90;;;4.30;;
78840;SDS011;68379;47.190;27.558;2024-01-30T10:46:32;9.60;;;4.50;;
78840;SDS011;68379;47.190;27.558;2024-01-30T10:49:05;9.20;;;4.00;;
78840;SDS011;68379;47.190;27.558;2024-01-30T10:51:37;6.80;;;3.70;;
78840;SDS011;68379;47.190;27.558;2024-01-30T10:54:10;8.40;;;4.00;;
78840;SDS011;68379;47.190;27.558;2024-01-30T10:56:43;8.60;;;4.20;;
78840;SDS011;68379;47.190;27.558;2024-01-30T10:59:15;7.40;;;4.50;;
78840;SDS011;68379;47.190;27.558;2024-01-30T11:01:48;9.90;;;3.80;;
78840;SDS011;68379;47.190;27.558;2024-01-30T11:04:20;8.90;;;4.10;;
78840;SDS011;68379;47.190;27.558;2024-01-30T11:06:53;6.70;;;3.90;;
78840;SDS011;68379;47.190;27.558;2024-01-30T11:09:25;7.50;;;3.70;;
78840;SDS011;68379;47.190;27.558;2024-01-30T11:12:06;7.80;;;3.80;;
78840;SDS011;68379;47.190;27.558;2024-01-30T11:14:43;6.50;;;3.70;;
78840;SDS011;68379;47.190;27.558;2024-01-30T11:17:15;10.60;;;4.40;;
78840;SDS011;68379;47.190;27.558;2024-01-30T11:19:48;6.70;;;3.90;;
78840;SDS011;68379;47.190;27.558;2024-01-30T11:22:21;7.60;;;3.80;;
78840;SDS011;68379;47.190;27.558;2024-01-30T11:24:54;7.20;;;4.30;;
78840;SDS011;68379;47.190;27.558;2024-01-30T11:27:28;7.30;;;4.00;;
78840;SDS011;68379;47.190;27.558;2024-01-30T11:30:08;8.70;;;4.50;;
78840;SDS011;68379;47.190;27.558;2024-01-30T11:32:43;7.60;;;3.70;;
78840;SDS011;68379;47.190;27.558;2024-01-30T11:35:14;8.10;;;4.20;;
78840;SDS011;68379;47.190;27.558;2024-01-30T11:37:47;7.80;;;3.90;;
78840;SDS011;68379;47.190;27.558;2024-01-30T11:40:20;6.70;;;3.70;;
78840;SDS011;68379;47.190;27.558;2024-01-30T11:42:55;8.10;;;4.90;;
78840;SDS011;68379;47.190;27.558;2024-01-30T11:45:28;6.90;;;3.60;;
78840;SDS011;68379;47.190;27.558;2024-01-30T11:48:01;8.10;;;3.90;;
78840;SDS011;68379;47.190;27.558;2024-01-30T11:50:38;7.00;;;4.10;;
78840;SDS011;68379;47.190;27.558;2024-01-30T11:53:10;7.60;;;4.30;;
78840;SDS011;68379;47.190;27.558;2024-01-30T11:55:42;9.80;;;4.70;;
78840;SDS011;68379;47.190;27.558;2024-01-30T11:58:22;7.00;;;3.40;;
78840;SDS011;68379;47.190;27.558;2024-01-30T12:00:56;8.00;;;4.60;;
78840;SDS011;68379;47.190;27.558;2024-01-30T12:03:29;9.10;;;4.80;;
78840;SDS011;68379;47.190;27.558;2024-01-30T12:06:04;7.10;;;3.80;;
78840;SDS011;68379;47.190;27.558;2024-01-30T12:08:36;8.20;;;4.20;;
78840;SDS011;68379;47.190;27.558;2024-01-30T12:11:09;9.10;;;5.40;;
78840;SDS011;68379;47.190;27.558;2024-01-30T12:13:40;11.40;;;5.00;;
78840;SDS011;68379;47.190;27.558;2024-01-30T12:16:12;10.60;;;5.10;;
78840;SDS011;68379;47.190;27.558;2024-01-30T12:18:44;8.50;;;4.70;;
78840;SDS011;68379;47.190;27.558;2024-01-30T12:21:17;7.40;;;4.20;;
78840;SDS011;68379;47.190;27.558;2024-01-30T12:23:49;9.80;;;4.60;;
78840;SDS011;68379;47.190;27.558;2024-01-30T12:26:21;9.20;;;4.40;;
78840;SDS011;68379;47.190;27.558;2024-01-30T12:28:56;8.40;;;4.50;;
78840;SDS011;68379;47.190;27.558;2024-01-30T12:31:31;11.30;;;5.70;;
78840;SDS011;68379;47.190;27.558;2024-01-30T12:34:03;8.40;;;4.40;;
78840;SDS011;68379;47.190;27.558;2024-01-30T12:36:35;10.30;;;4.50;;
78840;SDS011;68379;47.190;27.558;2024-01-30T12:39:06;7.40;;;4.40;;
78840;SDS011;68379;47.190;27.558;2024-01-30T12:41:42;9.70;;;4.40;;
78840;SDS011;68379;47.190;27.558;2024-01-30T12:44:15;9.50;;;4.90;;
78840;SDS011;68379;47.190;27.558;2024-01-30T12:46:46;8.70;;;4.30;;
78840;SDS011;68379;47.190;27.558;2024-01-30T12:49:18;9.70;;;5.10;;
78840;SDS011;68379;47.190;27.558;2024-01-30T12:51:49;10.10;;;5.10;;
78840;SDS011;68379;47.190;27.558;2024-01-30T12:54:21;8.80;;;4.80;;
78840;SDS011;68379;47.190;27.558;2024-01-30T12:56:54;7.90;;;4.80;;
78840;SDS011;68379;47.190;27.558;2024-01-30T12:59:26;9.00;;;4.80;;
78840;SDS011;68379;47.190;27.558;2024-01-30T13:01:58;9.20;;;5.50;;
78840;SDS011;68379;47.190;27.558;2024-01-30T13:04:31;10.60;;;5.10;;
78840;SDS011;68379;47.190;27.558;2024-01-30T13:07:03;9.90;;;5.40;;
78840;SDS011;68379;47.190;27.558;2024-01-30T13:09:35;11.20;;;5.30;;
78840;SDS011;68379;47.190;27.558;2024-01-30T13:12:08;9.90;;;5.20;;
78840;SDS011;68379;47.190;27.558;2024-01-30T13:14:42;9.70;;;5.30;;
78840;SDS011;68379;47.190;27.558;2024-01-30T13:17:14;8.30;;;4.90;;
78840;SDS011;68379;47.190;27.558;2024-01-30T13:19:46;11.10;;;5.30;;
78840;SDS011;68379;47.190;27.558;2024-01-30T13:22:21;12.40;;;6.00;;
78840;SDS011;68379;47.190;27.558;2024-01-30T13:24:54;9.60;;;5.50;;
78840;SDS011;68379;47.190;27.558;2024-01-30T13:27:26;9.70;;;5.80;;
78840;SDS011;68379;47.190;27.558;2024-01-30T13:29:59;8.60;;;5.00;;
78840;SDS011;68379;47.190;27.558;2024-01-30T13:32:32;10.10;;;4.90;;
78840;SDS011;68379;47.190;27.558;2024-01-30T13:35:04;10.20;;;5.80;;
78840;SDS011;68379;47.190;27.558;2024-01-30T13:37:36;9.00;;;5.30;;
78840;SDS011;68379;47.190;27.558;2024-01-30T13:40:08;10.70;;;5.20;;
78840;SDS011;68379;47.190;27.558;2024-01-30T13:42:42;10.10;;;5.40;;
78840;SDS011;68379;47.190;27.558;2024-01-30T13:45:16;10.30;;;6.20;;
78840;SDS011;68379;47.190;27.558;2024-01-30T13:47:47;12.20;;;5.40;;
78840;SDS011;68379;47.190;27.558;2024-01-30T13:50:19;10.70;;;6.00;;
78840;SDS011;68379;47.190;27.558;2024-01-30T13:52:51;13.40;;;5.80;;
78840;SDS011;68379;47.190;27.558;2024-01-30T13:55:23;11.90;;;6.00;;
78840;SDS011;68379;47.190;27.558;2024-01-30T13:57:56;12.10;;;6.40;;
78840;SDS011;68379;47.190;27.558;2024-01-30T14:00:30;12.90;;;6.50;;
78840;SDS011;68379;47.190;27.558;2024-01-30T14:03:03;11.80;;;6.30;;
78840;SDS011;68379;47.190;27.558;2024-01-30T14:05:39;11.30;;;5.50;;
78840;SDS011;68379;47.190;27.558;2024-01-30T14:08:10;11.70;;;6.30;;
78840;SDS011;68379;47.190;27.558;2024-01-30T14:10:42;13.80;;;6.20;;
78840;SDS011;68379;47.190;27.558;2024-01-30T14:13:14;12.70;;;6.30;;
78840;SDS011;68379;47.190;27.558;2024-01-30T14:15:47;14.80;;;6.80;;
78840;SDS011;68379;47.190;27.558;2024-01-30T14:18:19;14.20;;;7.00;;
78840;SDS011;68379;47.190;27.558;2024-01-30T14:20:51;11.30;;;6.30;;
78840;SDS011;68379;47.190;27.558;2024-01-30T14:23:24;14.10;;;7.10;;
78840;SDS011;68379;47.190;27.558;2024-01-30T14:25:56;11.00;;;6.00;;
78840;SDS011;68379;47.190;27.558;2024-01-30T14:28:28;11.20;;;6.30;;
78840;SDS011;68379;47.190;27.558;2024-01-30T14:31:02;13.60;;;7.30;;
78840;SDS011;68379;47.190;27.558;2024-01-30T14:33:35;12.70;;;6.90;;
78840;SDS011;68379;47.190;27.558;2024-01-30T14:36:07;12.80;;;7.30;;
78840;SDS011;68379;47.190;27.558;2024-01-30T14:38:39;13.20;;;7.00;;
78840;SDS011;68379;47.190;27.558;2024-01-30T14:41:10;15.00;;;8.20;;
78840;SDS011;68379;47.190;27.558;2024-01-30T14:43:42;15.00;;;7.90;;
78840;SDS011;68379;47.190;27.558;2024-01-30T14:46:14;17.30;;;9.00;;
78840;SDS011;68379;47.190;27.558;2024-01-30T14:48:46;14.20;;;7.80;;
78840;SDS011;68379;47.190;27.558;2024-01-30T14:51:19;14.60;;;7.90;;
78840;SDS011;68379;47.190;27.558;2024-01-30T14:53:51;15.40;;;7.60;;
78840;SDS011;68379;47.190;27.558;2024-01-30T14:56:23;16.20;;;8.50;;
78840;SDS011;68379;47.190;27.558;2024-01-30T14:58:55;15.70;;;8.30;;
78840;SDS011;68379;47.190;27.558;2024-01-30T15:01:27;17.50;;;8.60;;
78840;SDS011;68379;47.190;27.558;2024-01-30T15:03:59;15.80;;;8.60;;
78840;SDS011;68379;47.190;27.558;2024-01-30T15:06:31;18.10;;;9.00;;
78840;SDS011;68379;47.190;27.558;2024-01-30T15:09:04;15.60;;;8.50;;